CN-0059 weather

Guangzhou East Airfield
Guangdong Province, China

Public forecast

Using degrees Celsius for public forecast. Weather courtesy of forecast.io.

Closest aviation weather report (METAR) to Guangzhou East Airfield

Closest report is Guangzhou Baiyun International Airport, 14.2 nm (26.3 km) NNW. Retrieved 2020/03/31 07:30 UTC (11 minutes ago):

ZGGG 310730Z 33003MPS 310V010 2200 -RA BR FEW004 SCT011 OVC020 14/13 Q1013 BECMG AT0830 4000

Closest aviation forecast (TAF) to Guangzhou East Airfield

Closest forecast is Guangzhou Baiyun International Airport, 14.2 nm (26.3 km) NNW. Retrieved 2020/03/31 06:03 UTC (2 hours ago):

TAF ZGGG 310315Z 3106/0106 36003MPS 4000 -RA BR SCT006 OVC020 TX17/3107Z TN14/3122Z TEMPO 3106/3112 2500 RA BKN006 OVC020